createdAt,value
2022-11-09T00:02:27.570Z,11.24
2022-11-09T00:04:53.985Z,11.09
2022-11-09T00:07:20.499Z,11.18
2022-11-09T00:09:47.075Z,11.18
2022-11-09T00:12:13.624Z,11.17
2022-11-09T00:14:40.130Z,11.16
2022-11-09T00:17:06.572Z,11.15
2022-11-09T00:19:33.022Z,11.14
2022-11-09T00:21:59.453Z,11.13
2022-11-09T00:24:25.896Z,11.10
2022-11-09T00:26:52.399Z,11.10
2022-11-09T00:29:19.600Z,11.09
2022-11-09T00:31:49.706Z,11.09
2022-11-09T00:34:16.270Z,11.07
2022-11-09T00:36:42.719Z,11.04
2022-11-09T00:39:09.172Z,11.03
2022-11-09T00:41:35.655Z,11.02
2022-11-09T00:44:02.150Z,11.00
2022-11-09T00:46:28.957Z,10.97
2022-11-09T00:48:56.151Z,10.95
2022-11-09T00:51:23.267Z,10.85
2022-11-09T00:53:53.773Z,10.93
2022-11-09T00:56:21.280Z,10.94
2022-11-09T00:58:47.762Z,10.93
2022-11-09T01:01:17.245Z,10.91
2022-11-09T01:03:46.881Z,10.89
2022-11-09T01:06:16.481Z,10.86
2022-11-09T01:08:44.116Z,10.82
2022-11-09T01:11:11.302Z,10.78
2022-11-09T01:13:38.969Z,10.67
2022-11-09T01:16:12.994Z,10.74
2022-11-09T01:18:40.225Z,10.74
2022-11-09T01:21:09.715Z,10.75
2022-11-09T01:23:37.049Z,10.72
2022-11-09T01:26:06.410Z,10.73
2022-11-09T01:28:33.283Z,10.71
2022-11-09T01:31:07.868Z,10.68
2022-11-09T01:33:34.624Z,10.66
2022-11-09T01:36:08.003Z,10.62
2022-11-09T01:38:36.409Z,10.59
2022-11-09T01:41:02.932Z,10.56
2022-11-09T01:43:29.477Z,10.40
2022-11-09T01:46:20.550Z,10.44
2022-11-09T01:48:55.688Z,10.40
2022-11-09T01:51:42.961Z,10.38
2022-11-09T01:54:21.156Z,10.37
2022-11-09T01:56:52.077Z,10.36
2022-11-09T01:59:24.300Z,10.36
2022-11-09T02:01:52.037Z,10.35
2022-11-09T02:04:28.629Z,10.28
2022-11-09T02:06:57.425Z,10.24
2022-11-09T02:09:31.752Z,10.24
2022-11-09T02:11:59.964Z,10.23
2022-11-09T02:14:29.302Z,10.22
2022-11-09T02:16:56.497Z,10.13
2022-11-09T02:19:22.965Z,10.26
2022-11-09T02:21:50.204Z,10.27
2022-11-09T02:24:17.853Z,10.28
2022-11-09T02:26:48.300Z,10.20
2022-11-09T02:29:22.518Z,10.27
2022-11-09T02:31:54.915Z,10.28
2022-11-09T02:34:21.942Z,10.26
2022-11-09T02:36:48.450Z,10.25
2022-11-09T02:39:23.020Z,10.26
2022-11-09T02:42:02.911Z,10.21
2022-11-09T02:44:37.828Z,10.27
2022-11-09T02:47:04.237Z,10.26
2022-11-09T02:49:30.981Z,10.25
2022-11-09T02:51:57.467Z,10.22
2022-11-09T02:54:23.976Z,10.25
2022-11-09T02:56:51.810Z,10.25
2022-11-09T02:59:18.435Z,10.11
2022-11-09T03:01:44.973Z,10.26
2022-11-09T03:04:11.486Z,10.29
2022-11-09T03:06:38.190Z,10.21
2022-11-09T03:09:12.774Z,10.30
2022-11-09T03:11:40.934Z,10.30
2022-11-09T03:14:12.465Z,10.29
2022-11-09T03:16:50.182Z,10.26
2022-11-09T03:19:16.858Z,10.25
2022-11-09T03:21:44.802Z,10.25
2022-11-09T03:24:11.398Z,10.25
2022-11-09T03:26:39.425Z,10.25
2022-11-09T03:29:06.096Z,10.25
2022-11-09T03:31:33.000Z,10.29
2022-11-09T03:34:03.392Z,10.31
2022-11-09T03:36:29.847Z,10.32
2022-11-09T03:38:56.784Z,10.33
2022-11-09T03:41:23.379Z,10.34
2022-11-09T03:43:49.962Z,10.36
2022-11-09T03:46:16.412Z,10.37
2022-11-09T03:48:42.905Z,10.28
2022-11-09T03:51:09.399Z,10.38
2022-11-09T03:53:35.876Z,10.37
2022-11-09T03:56:02.335Z,10.36
2022-11-09T03:58:29.687Z,10.39
2022-11-09T04:00:56.189Z,10.41
2022-11-09T04:03:22.908Z,10.41
2022-11-09T04:05:49.546Z,10.45
2022-11-09T04:08:16.025Z,10.48
2022-11-09T04:10:42.513Z,10.42
2022-11-09T04:13:09.067Z,10.61
2022-11-09T04:15:35.491Z,10.72
2022-11-09T04:18:03.497Z,10.78
2022-11-09T04:20:31.232Z,10.85
2022-11-09T04:23:02.368Z,10.89
2022-11-09T04:25:32.723Z,10.93
2022-11-09T04:27:59.662Z,10.94
2022-11-09T04:30:28.105Z,10.97
2022-11-09T04:32:55.743Z,10.99
2022-11-09T04:35:22.519Z,11.01
2022-11-09T04:38:02.452Z,11.03
2022-11-09T04:40:31.915Z,11.00
2022-11-09T04:43:02.925Z,11.13
2022-11-09T04:45:29.565Z,11.22
2022-11-09T04:48:03.565Z,11.31
2022-11-09T04:50:30.587Z,11.37
2022-11-09T04:53:07.984Z,11.41
2022-11-09T04:55:34.832Z,11.37
2022-11-09T04:58:01.580Z,11.37
2022-11-09T05:00:28.072Z,11.34
2022-11-09T05:02:54.562Z,11.29
2022-11-09T05:05:21.044Z,11.26
2022-11-09T05:07:47.487Z,11.20
2022-11-09T05:10:14.266Z,11.14
2022-11-09T05:12:45.685Z,11.10
2022-11-09T05:15:12.602Z,11.08
2022-11-09T05:17:39.145Z,11.09
2022-11-09T05:20:06.039Z,11.11
2022-11-09T05:22:50.872Z,11.14
2022-11-09T05:25:17.369Z,11.14
2022-11-09T05:27:43.790Z,11.14
2022-11-09T05:30:10.809Z,11.13
2022-11-09T05:32:39.465Z,11.14
2022-11-09T05:35:06.503Z,11.14
2022-11-09T05:37:33.006Z,11.05
2022-11-09T05:39:59.588Z,11.16
2022-11-09T05:42:26.364Z,11.17
2022-11-09T05:44:52.794Z,11.18
2022-11-09T05:47:20.145Z,11.18
2022-11-09T05:49:46.676Z,11.19
2022-11-09T05:52:13.496Z,11.18
2022-11-09T05:54:39.969Z,11.18
2022-11-09T05:57:06.448Z,11.18
2022-11-09T05:59:33.028Z,11.19
2022-11-09T06:01:59.587Z,11.18
2022-11-09T06:04:26.042Z,11.18
2022-11-09T06:06:52.557Z,11.00
2022-11-09T06:09:19.084Z,11.16
2022-11-09T06:11:45.544Z,11.14
2022-11-09T06:14:12.036Z,11.10
2022-11-09T06:16:38.444Z,11.06
2022-11-09T06:19:05.211Z,11.05
2022-11-09T06:21:31.642Z,10.93
2022-11-09T06:23:58.103Z,11.03
2022-11-09T06:26:24.559Z,11.04
2022-11-09T06:28:50.994Z,10.95
2022-11-09T06:31:17.675Z,10.94
2022-11-09T06:33:44.176Z,11.03
2022-11-09T06:36:11.450Z,11.01
2022-11-09T06:38:38.258Z,10.99
2022-11-09T06:41:04.918Z,10.96
2022-11-09T06:43:31.563Z,10.94
2022-11-09T06:45:58.027Z,10.89
2022-11-09T06:48:24.821Z,10.75
2022-11-09T06:50:51.245Z,10.82
2022-11-09T06:53:18.598Z,10.81
2022-11-09T06:55:50.195Z,10.81
2022-11-09T06:58:17.119Z,10.79
2022-11-09T07:00:44.749Z,10.75
2022-11-09T07:03:15.024Z,10.78
2022-11-09T07:05:41.839Z,10.79
2022-11-09T07:08:08.280Z,10.79
2022-11-09T07:10:34.712Z,10.78
2022-11-09T07:13:03.184Z,10.79
2022-11-09T07:15:29.825Z,10.84
2022-11-09T07:17:57.897Z,10.90
2022-11-09T07:20:24.907Z,11.00
2022-11-09T07:22:51.357Z,11.07
2022-11-09T07:25:18.104Z,11.20
2022-11-09T07:27:44.555Z,11.28
2022-11-09T07:30:11.718Z,11.36
2022-11-09T07:33:09.987Z,11.37
2022-11-09T07:35:27.170Z,11.51
2022-11-09T07:37:53.956Z,11.56
2022-11-09T07:40:20.700Z,11.61
2022-11-09T07:42:47.183Z,11.67
2022-11-09T07:45:14.004Z,11.70
2022-11-09T07:47:40.415Z,11.74
2022-11-09T07:50:07.028Z,11.77
2022-11-09T07:52:33.476Z,11.78
2022-11-09T07:54:59.916Z,11.82
2022-11-09T07:57:27.791Z,11.82
2022-11-09T07:59:54.410Z,11.85
2022-11-09T08:02:20.904Z,11.87
2022-11-09T08:04:47.521Z,11.92
2022-11-09T08:07:14.395Z,11.90
2022-11-09T08:09:40.953Z,12.01
2022-11-09T08:12:07.460Z,12.04
2022-11-09T08:14:33.918Z,12.07
2022-11-09T08:17:00.369Z,12.09
2022-11-09T08:19:26.795Z,12.15
2022-11-09T08:21:57.280Z,12.20
2022-11-09T08:24:24.206Z,12.26
2022-11-09T08:26:50.683Z,12.31
2022-11-09T08:29:17.483Z,12.35
2022-11-09T08:31:44.074Z,12.37
2022-11-09T08:34:13.904Z,12.38
2022-11-09T08:36:40.353Z,12.40
2022-11-09T08:39:06.879Z,12.42
2022-11-09T08:41:33.863Z,12.44
2022-11-09T08:44:00.392Z,12.47
2022-11-09T08:46:26.871Z,12.47
2022-11-09T08:48:53.373Z,12.47
2022-11-09T08:51:19.824Z,12.47
2022-11-09T08:53:46.347Z,12.47
2022-11-09T08:56:12.994Z,12.46
2022-11-09T08:58:39.500Z,12.49
2022-11-09T09:01:09.944Z,12.50
2022-11-09T09:03:40.278Z,12.50
2022-11-09T09:06:07.870Z,12.52
2022-11-09T09:08:35.157Z,12.50
2022-11-09T09:11:03.358Z,12.50
2022-11-09T09:13:30.465Z,12.47
2022-11-09T09:15:57.167Z,12.44
2022-11-09T09:18:23.875Z,12.44
2022-11-09T09:20:51.104Z,12.46
2022-11-09T09:23:17.664Z,12.48
2022-11-09T09:25:44.235Z,12.48
2022-11-09T09:28:11.023Z,12.61
2022-11-09T09:30:37.474Z,12.67
2022-11-09T09:33:04.021Z,12.70
2022-11-09T09:35:30.448Z,12.68
2022-11-09T09:37:58.145Z,12.64
2022-11-09T09:40:38.387Z,12.65
2022-11-09T09:43:04.880Z,12.65
2022-11-09T09:45:34.594Z,12.66
2022-11-09T09:48:04.081Z,12.67
2022-11-09T09:50:53.480Z,12.69
2022-11-09T09:53:31.836Z,12.74
2022-11-09T09:56:19.719Z,12.82
2022-11-09T09:58:52.728Z,12.84
2022-11-09T10:01:23.938Z,13.11
2022-11-09T10:03:50.868Z,13.28
2022-11-09T10:06:26.580Z,13.32
2022-11-09T10:09:13.080Z,13.29
2022-11-09T10:11:46.832Z,13.23
2022-11-09T10:14:40.386Z,13.23
2022-11-09T10:17:11.502Z,13.21
2022-11-09T10:19:55.099Z,13.27
2022-11-09T10:23:00.565Z,13.39
2022-11-09T10:25:50.198Z,13.62
2022-11-09T10:28:17.473Z,13.94
2022-11-09T10:30:44.695Z,13.96
2022-11-09T10:33:11.114Z,13.90
2022-11-09T10:35:45.022Z,13.81
2022-11-09T10:38:29.334Z,13.75
2022-11-09T10:41:34.893Z,13.67
2022-11-09T10:44:20.218Z,13.61
2022-11-09T10:47:16.638Z,13.57
2022-11-09T10:50:25.481Z,13.55
2022-11-09T10:53:21.168Z,13.58
2022-11-09T10:56:17.640Z,13.63
2022-11-09T10:59:43.025Z,13.67
2022-11-09T11:02:28.950Z,13.72
2022-11-09T11:05:16.904Z,13.77
2022-11-09T11:08:42.139Z,13.77
2022-11-09T11:11:34.999Z,13.76
2022-11-09T11:14:23.826Z,13.81
2022-11-09T11:17:27.722Z,14.16
2022-11-09T11:20:31.045Z,14.71
2022-11-09T11:23:17.975Z,15.17
2022-11-09T11:26:23.543Z,15.69
2022-11-09T11:29:45.281Z,16.27
2022-11-09T11:32:30.739Z,16.67
2022-11-09T11:35:26.296Z,16.76
2022-11-09T11:38:25.111Z,16.64
2022-11-09T11:41:35.353Z,16.34
2022-11-09T11:45:02.995Z,16.03
2022-11-09T11:48:08.523Z,15.82
2022-11-09T11:51:31.573Z,15.68
2022-11-09T11:54:25.462Z,15.72
2022-11-09T11:58:07.198Z,15.67
2022-11-09T12:01:03.771Z,15.56
2022-11-09T12:04:00.049Z,15.47
2022-11-09T12:07:08.307Z,15.40
2022-11-09T12:10:06.558Z,15.42
2022-11-09T12:13:14.294Z,15.41
2022-11-09T12:16:14.078Z,15.43
2022-11-09T12:19:35.052Z,15.51
2022-11-09T12:22:38.869Z,15.60
2022-11-09T12:25:43.024Z,15.71
2022-11-09T12:28:50.444Z,15.71
2022-11-09T12:31:56.823Z,15.72
2022-11-09T12:34:57.100Z,15.68
2022-11-09T12:37:51.165Z,15.56
2022-11-09T12:40:42.791Z,15.43
2022-11-09T12:43:34.209Z,15.27
2022-11-09T12:46:22.607Z,15.19
2022-11-09T12:49:35.103Z,14.98
2022-11-09T12:52:27.007Z,15.03
2022-11-09T12:55:18.367Z,14.91
2022-11-09T12:58:03.928Z,14.99
2022-11-09T13:00:51.671Z,15.05
2022-11-09T13:03:39.875Z,15.07
2022-11-09T13:06:30.340Z,15.03
2022-11-09T13:09:15.501Z,14.98
2022-11-09T13:12:35.417Z,14.98
2022-11-09T13:15:22.277Z,14.93
2022-11-09T13:18:45.871Z,14.87
2022-11-09T13:21:33.412Z,14.77
2022-11-09T13:24:30.564Z,14.74
2022-11-09T13:27:47.514Z,14.67
2022-11-09T13:30:35.371Z,14.63
2022-11-09T13:33:22.227Z,14.60
2022-11-09T13:36:07.509Z,14.57
2022-11-09T13:39:30.844Z,14.57
2022-11-09T13:42:31.225Z,14.57
2022-11-09T13:45:43.231Z,14.55
2022-11-09T13:48:36.520Z,14.52
2022-11-09T13:51:43.822Z,14.54
2022-11-09T13:54:36.960Z,14.53
2022-11-09T13:57:24.665Z,14.52
2022-11-09T14:00:19.529Z,14.52
2022-11-09T14:03:18.302Z,14.52
2022-11-09T14:06:03.394Z,14.45
2022-11-09T14:08:49.133Z,14.43
2022-11-09T14:11:49.145Z,14.40
2022-11-09T14:15:03.543Z,14.38
2022-11-09T14:18:10.780Z,14.35
2022-11-09T14:21:08.365Z,14.32
2022-11-09T14:23:54.155Z,14.29
2022-11-09T14:26:38.915Z,14.28
2022-11-09T14:29:25.621Z,14.27
2022-11-09T14:32:31.609Z,14.24
2022-11-09T14:35:22.413Z,14.19
2022-11-09T14:38:21.493Z,14.07
2022-11-09T14:41:19.930Z,14.12
2022-11-09T14:44:05.488Z,14.10
2022-11-09T14:46:55.707Z,14.07
2022-11-09T14:49:41.328Z,14.04
2022-11-09T14:52:28.865Z,13.99
2022-11-09T14:55:16.382Z,13.95
2022-11-09T14:58:02.613Z,13.92
2022-11-09T15:01:20.110Z,13.90
2022-11-09T15:04:09.117Z,13.84
2022-11-09T15:07:03.829Z,13.80
2022-11-09T15:09:52.113Z,13.78
2022-11-09T15:12:39.186Z,13.77
2022-11-09T15:15:29.576Z,13.74
2022-11-09T15:18:33.577Z,13.68
2022-11-09T15:21:33.023Z,13.52
2022-11-09T15:24:19.607Z,13.56
2022-11-09T15:27:29.519Z,13.53
2022-11-09T15:30:43.243Z,13.49
2022-11-09T15:33:33.607Z,13.44
2022-11-09T15:36:31.537Z,13.41
2022-11-09T15:39:19.302Z,13.39
2022-11-09T15:42:04.534Z,13.36
2022-11-09T15:44:56.176Z,13.35
2022-11-09T15:47:41.656Z,13.32
2022-11-09T15:50:27.671Z,13.29
2022-11-09T15:53:13.788Z,13.26
2022-11-09T15:56:00.362Z,13.23
2022-11-09T15:58:48.608Z,13.21
2022-11-09T16:01:33.971Z,13.16
2022-11-09T16:04:19.117Z,13.15
2022-11-09T16:07:04.063Z,13.12
2022-11-09T16:09:49.326Z,13.07
2022-11-09T16:12:34.156Z,13.01
2022-11-09T16:15:20.031Z,13.00
2022-11-09T16:18:05.650Z,12.88
2022-11-09T16:20:50.870Z,12.96
2022-11-09T16:23:36.187Z,12.94
2022-11-09T16:26:21.291Z,12.95
2022-11-09T16:29:06.557Z,12.94
2022-11-09T16:31:52.416Z,12.93
2022-11-09T16:34:37.928Z,12.92
2022-11-09T16:37:23.481Z,12.89
2022-11-09T16:40:12.738Z,12.76
2022-11-09T16:43:00.303Z,12.77
2022-11-09T16:45:48.685Z,12.85
2022-11-09T16:48:34.544Z,12.81
2022-11-09T16:51:19.935Z,12.79
2022-11-09T16:54:05.213Z,12.77
2022-11-09T16:56:52.196Z,12.74
2022-11-09T16:59:37.251Z,12.72
2022-11-09T17:02:24.784Z,12.69
2022-11-09T17:05:09.949Z,12.55
2022-11-09T17:07:55.222Z,12.66
2022-11-09T17:10:42.256Z,12.65
2022-11-09T17:13:27.459Z,12.64
2022-11-09T17:16:13.563Z,12.61
2022-11-09T17:18:59.959Z,12.61
2022-11-09T17:21:45.090Z,12.56
2022-11-09T17:24:30.517Z,12.53
2022-11-09T17:27:16.699Z,12.48
2022-11-09T17:30:02.066Z,12.43
2022-11-09T17:32:48.530Z,12.38
2022-11-09T17:35:36.579Z,12.36
2022-11-09T17:38:22.099Z,12.32
2022-11-09T17:41:09.337Z,12.29
2022-11-09T17:43:54.388Z,12.26
2022-11-09T17:46:39.216Z,12.26
2022-11-09T17:49:24.144Z,12.25
2022-11-09T17:52:09.020Z,12.24
2022-11-09T17:54:53.870Z,12.20
2022-11-09T17:57:38.785Z,12.19
2022-11-09T18:00:23.777Z,12.16
2022-11-09T18:03:09.281Z,12.05
2022-11-09T18:05:54.153Z,12.11
2022-11-09T18:08:39.051Z,12.10
2022-11-09T18:11:24.736Z,12.07
2022-11-09T18:14:11.172Z,12.06
2022-11-09T18:16:56.195Z,12.05
2022-11-09T18:19:41.241Z,12.04
2022-11-09T18:22:25.994Z,12.00
2022-11-09T18:25:11.376Z,11.99
2022-11-09T18:27:57.015Z,12.00
2022-11-09T18:30:41.943Z,12.01
2022-11-09T18:33:26.882Z,11.99
2022-11-09T18:36:15.451Z,12.01
2022-11-09T18:39:03.021Z,11.99
2022-11-09T18:41:48.209Z,12.00
2022-11-09T18:44:33.100Z,12.01
2022-11-09T18:47:18.243Z,12.00
2022-11-09T18:50:03.534Z,11.99
2022-11-09T18:52:48.662Z,12.00
2022-11-09T18:55:33.556Z,12.00
2022-11-09T18:58:18.727Z,12.01
2022-11-09T19:01:06.310Z,11.98
2022-11-09T19:03:56.278Z,11.99
2022-11-09T19:06:44.513Z,11.84
2022-11-09T19:09:30.325Z,11.96
2022-11-09T19:12:15.327Z,11.96
2022-11-09T19:15:01.577Z,11.96
2022-11-09T19:17:46.356Z,11.95
2022-11-09T19:20:31.650Z,11.95
2022-11-09T19:23:16.574Z,11.95
2022-11-09T19:26:02.037Z,11.93
2022-11-09T19:28:46.993Z,11.93
2022-11-09T19:31:32.024Z,11.90
2022-11-09T19:34:18.849Z,11.88
2022-11-09T19:37:03.959Z,11.87
2022-11-09T19:39:49.146Z,11.87
2022-11-09T19:42:34.316Z,11.87
2022-11-09T19:45:19.626Z,11.79
2022-11-09T19:48:04.614Z,11.84
2022-11-09T19:50:51.195Z,11.82
2022-11-09T19:53:42.014Z,11.80
2022-11-09T19:56:31.157Z,11.69
2022-11-09T19:59:17.083Z,11.74
2022-11-09T20:02:01.961Z,11.73
2022-11-09T20:04:48.391Z,11.73
2022-11-09T20:07:33.387Z,11.70
2022-11-09T20:10:18.758Z,11.70
2022-11-09T20:13:03.934Z,11.72
2022-11-09T20:15:48.785Z,11.74
2022-11-09T20:18:38.211Z,11.75
2022-11-09T20:21:23.194Z,11.72
2022-11-09T20:24:08.334Z,11.71
2022-11-09T20:26:53.364Z,11.69
2022-11-09T20:29:38.110Z,11.69
2022-11-09T20:32:23.766Z,11.67
2022-11-09T20:35:09.452Z,11.69
2022-11-09T20:37:54.655Z,11.69
2022-11-09T20:40:39.616Z,11.68
2022-11-09T20:43:25.824Z,11.64
2022-11-09T20:46:20.173Z,11.60
2022-11-09T20:49:05.706Z,11.56
2022-11-09T20:51:50.485Z,11.52
2022-11-09T20:54:35.408Z,11.51
2022-11-09T20:57:21.446Z,11.49
2022-11-09T21:00:07.704Z,11.39
2022-11-09T21:02:52.842Z,11.44
2022-11-09T21:05:37.643Z,11.42
2022-11-09T21:08:22.899Z,11.38
2022-11-09T21:11:09.640Z,11.39
2022-11-09T21:13:55.365Z,11.37
2022-11-09T21:16:40.332Z,11.35
2022-11-09T21:19:25.144Z,11.34
2022-11-09T21:22:10.185Z,11.33
2022-11-09T21:25:14.046Z,11.33
2022-11-09T21:28:31.443Z,11.34
2022-11-09T21:31:16.213Z,11.30
2022-11-09T21:34:01.493Z,11.27
2022-11-09T21:36:46.430Z,11.21
2022-11-09T21:39:31.861Z,11.24
2022-11-09T21:42:16.862Z,11.19
2022-11-09T21:45:01.981Z,11.18
2022-11-09T21:47:46.880Z,11.08
2022-11-09T21:50:31.964Z,11.14
2022-11-09T21:53:17.071Z,11.09
2022-11-09T21:56:01.925Z,11.10
2022-11-09T21:58:48.018Z,11.07
2022-11-09T22:01:32.990Z,11.06
2022-11-09T22:04:17.991Z,11.02
2022-11-09T22:07:02.803Z,11.03
2022-11-09T22:10:09.354Z,11.04
2022-11-09T22:13:13.396Z,11.03
2022-11-09T22:16:09.343Z,11.02
2022-11-09T22:19:12.982Z,11.00
2022-11-09T22:21:58.111Z,10.96
2022-11-09T22:24:43.004Z,10.94
2022-11-09T22:27:31.175Z,10.86
2022-11-09T22:30:16.715Z,10.93
2022-11-09T22:33:01.630Z,10.91
2022-11-09T22:35:54.052Z,10.91
2022-11-09T22:38:38.929Z,10.81
2022-11-09T22:41:24.568Z,10.91
2022-11-09T22:44:09.861Z,10.91
2022-11-09T22:46:55.197Z,10.89
2022-11-09T22:49:40.368Z,10.88
2022-11-09T22:52:25.487Z,10.88
2022-11-09T22:55:10.597Z,10.80
2022-11-09T22:57:56.868Z,10.90
2022-11-09T23:00:42.234Z,10.88
2022-11-09T23:03:27.329Z,10.88
2022-11-09T23:06:21.840Z,10.89
2022-11-09T23:09:06.996Z,10.88
2022-11-09T23:11:52.128Z,10.89
2022-11-09T23:14:55.906Z,10.85
2022-11-09T23:17:59.808Z,10.83
2022-11-09T23:20:44.983Z,10.81
2022-11-09T23:23:29.915Z,10.80
2022-11-09T23:26:15.139Z,10.79
2022-11-09T23:29:00.404Z,10.80
2022-11-09T23:31:45.505Z,10.79
2022-11-09T23:34:30.161Z,10.80
2022-11-09T23:37:15.044Z,10.81
2022-11-09T23:39:59.983Z,10.73
2022-11-09T23:42:45.370Z,10.78
2022-11-09T23:45:32.681Z,10.80
2022-11-09T23:48:19.218Z,10.80
2022-11-09T23:51:05.564Z,10.81
2022-11-09T23:53:50.445Z,10.80
2022-11-09T23:56:35.333Z,10.81
2022-11-09T23:59:20.304Z,10.82
